Time;durP1;ratioP1;P1;durP2;ratioP2;P2;SDS_P1;SDS_P2;PMS_P1;PMS_P2;Temp;Humidity;BMP_temperature;BMP_pressure;BME280_temperature;BME280_humidity;BME280_pressure;Samples;Min_cycle;Max_cycle;Signal;HPM_P1;HPM_P2
2023/07/25 00:00:40;;;;;;;;;;;18.20;99.90;;;;;;5044612;28;19958;-69
2023/07/25 00:03:06;;;;;;;;;;;18.30;99.90;;;;;;5072225;28;19908;-71
2023/07/25 00:05:34;;;;;;;;;;;18.60;99.90;;;;;;5084970;28;20038;-71
2023/07/25 00:08:01;;;;;;;;;;;19.00;99.90;;;;;;5092258;28;19910;-69
2023/07/25 00:10:28;;;;;;;;;;;19.10;99.90;;;;;;5090136;28;19919;-70
2023/07/25 00:12:55;;;;;;;;;;;19.20;99.90;;;;;;5091143;28;19912;-70
2023/07/25 00:15:22;;;;;;;;;;;19.80;99.90;;;;;;5091464;28;20333;-68
2023/07/25 00:17:49;;;;;;;;;;;20.20;99.90;;;;;;5076604;28;19967;-70
2023/07/25 00:20:16;;;;;;;;;;;20.20;99.90;;;;;;5075020;28;25064;-72
2023/07/25 00:22:43;;;;;;;;;;;20.50;99.90;;;;;;5092265;28;25034;-71
2023/07/25 00:25:10;;;;;;;;;;;20.50;99.90;;;;;;5092325;28;19996;-72
2023/07/25 00:27:37;;;;;;;;;;;20.60;99.90;;;;;;5092597;28;19994;-71
2023/07/25 00:30:05;;;;;;;;;;;21.10;99.90;;;;;;5092043;28;19964;-72
2023/07/25 00:32:35;;;;;;;;;;;20.70;99.90;;;;;;5089847;28;20364;-72
2023/07/25 00:35:02;;;;;;;;;;;20.80;99.90;;;;;;5079685;28;20576;-71
2023/07/25 00:37:32;;;;;;;;;;;21.20;99.90;;;;;;5091980;28;19981;-72
2023/07/25 00:39:59;;;;;;;;;;;21.30;99.90;;;;;;5090843;28;25093;-70
2023/07/25 00:42:26;;;;;;;;;;;20.90;99.90;;;;;;5091622;28;20792;-70
2023/07/25 00:44:53;;;;;;;;;;;21.10;99.90;;;;;;5091874;28;25102;-72
2023/07/25 00:47:21;;;;;;;;;;;21.40;99.90;;;;;;5090541;28;25055;-71
2023/07/25 00:49:48;;;;;;;;;;;21.50;99.90;;;;;;5080916;28;25083;-70
2023/07/25 00:52:15;;;;;;;;;;;22.00;99.90;;;;;;5079401;28;19978;-73
2023/07/25 00:54:47;;;;;;;;;;;22.00;99.90;;;;;;5092143;28;19974;-70
2023/07/25 00:57:15;;;;;;;;;;;21.90;99.90;;;;;;5092096;28;19988;-70
2023/07/25 00:59:42;;;;;;;;;;;22.20;99.90;;;;;;5092403;28;20154;-71
2023/07/25 01:02:10;;;;;;;;;;;22.20;99.90;;;;;;5092599;28;20105;-71
2023/07/25 01:04:37;;;;;;;;;;;22.20;99.90;;;;;;5091606;28;20488;-71
2023/07/25 01:07:05;;;;;;;;;;;22.30;99.90;;;;;;5090943;28;20196;-71
2023/07/25 01:09:36;;;;;;;;;;;22.30;99.90;;;;;;5078791;28;20142;-71
2023/07/25 01:12:04;;;;;;;;;;;22.50;99.90;;;;;;5071320;28;20150;-71
2023/07/25 01:14:34;;;;;;;;;;;23.00;99.90;;;;;;5087943;28;20195;-71
2023/07/25 01:17:21;;;;;;;;;;;23.00;99.90;;;;;;5068773;28;19987;-69
2023/07/25 01:19:49;;;;;;;;;;;22.70;99.90;;;;;;5083993;28;20112;-70
2023/07/25 01:22:16;;;;;;;;;;;22.60;99.90;;;;;;5088264;28;20084;-69
2023/07/25 01:24:44;;;;;;;;;;;23.00;99.90;;;;;;5088361;28;20198;-70
2023/07/25 01:27:12;;;;;;;;;;;22.90;99.90;;;;;;5091196;28;25059;-70
2023/07/25 01:29:38;;;;;;;;;;;23.30;99.90;;;;;;5090777;28;20178;-69
2023/07/25 01:32:06;;;;;;;;;;;23.60;99.90;;;;;;5090083;28;20027;-70
2023/07/25 01:34:33;;;;;;;;;;;23.80;99.90;;;;;;5089779;28;20099;-68
2023/07/25 01:36:59;;;;;;;;;;;24.10;99.90;;;;;;5090538;28;20522;-71
2023/07/25 01:39:26;;;;;;;;;;;23.90;99.90;;;;;;5090374;28;20018;-70
2023/07/25 01:42:20;;;;;;;;;;;24.00;99.90;;;;;;5089640;28;20182;-70
2023/07/25 01:44:47;;;;;;;;;;;23.80;99.90;;;;;;5089836;28;20076;-70
2023/07/25 01:47:14;;;;;;;;;;;23.90;99.90;;;;;;5090515;28;20409;-71
2023/07/25 01:49:41;;;;;;;;;;;23.60;99.90;;;;;;5085855;28;20424;-71
2023/07/25 01:52:08;;;;;;;;;;;23.60;99.90;;;;;;5090436;28;20093;-70
2023/07/25 01:54:35;;;;;;;;;;;23.70;99.90;;;;;;5079880;28;19978;-70
2023/07/25 01:57:01;;;;;;;;;;;23.70;99.90;;;;;;5090493;28;20390;-70
2023/07/25 01:59:29;;;;;;;;;;;24.00;99.90;;;;;;5094635;28;20085;-70
2023/07/25 02:01:55;;;;;;;;;;;23.70;99.90;;;;;;5094770;28;20107;-70
2023/07/25 02:04:22;;;;;;;;;;;23.90;99.90;;;;;;5094049;28;20466;-70
2023/07/25 02:06:49;;;;;;;;;;;23.70;99.90;;;;;;5094570;28;20112;-69
2023/07/25 02:09:16;;;;;;;;;;;24.50;99.90;;;;;;5091536;28;20093;-70
2023/07/25 02:11:43;;;;;;;;;;;25.10;96.80;;;;;;5093989;28;20344;-70
2023/07/25 02:14:10;;;;;;;;;;;25.40;93.00;;;;;;5094625;28;19979;-71
2023/07/25 02:16:39;;;;;;;;;;;25.40;90.60;;;;;;5095258;28;20330;-70
2023/07/25 02:19:06;;;;;;;;;;;24.90;85.70;;;;;;5096886;28;20070;-71
2023/07/25 02:21:34;;;;;;;;;;;24.40;89.30;;;;;;5095687;28;20081;-69
2023/07/25 02:24:01;;;;;;;;;;;24.10;93.20;;;;;;5094968;28;20153;-69
2023/07/25 02:26:27;;;;;;;;;;;24.00;97.20;;;;;;5096089;28;20639;-69
2023/07/25 02:28:54;;;;;;;;;;;24.40;93.70;;;;;;5095006;28;20647;-70
2023/07/25 02:31:21;;;;;;;;;;;24.00;93.10;;;;;;5081533;28;20095;-70
2023/07/25 02:33:48;;;;;;;;;;;24.20;94.50;;;;;;5073871;28;20117;-71
2023/07/25 02:36:15;;;;;;;;;;;24.30;91.90;;;;;;5074041;28;20539;-70
2023/07/25 02:38:42;;;;;;;;;;;24.00;93.60;;;;;;5073894;28;20421;-71
2023/07/25 02:41:09;;;;;;;;;;;23.60;92.50;;;;;;5090754;28;20617;-72
2023/07/25 02:43:36;;;;;;;;;;;23.90;94.80;;;;;;5094003;28;20015;-70
2023/07/25 02:46:02;;;;;;;;;;;24.10;91.90;;;;;;5093754;28;20102;-71
2023/07/25 02:48:29;;;;;;;;;;;24.50;92.00;;;;;;5093965;28;20185;-69
2023/07/25 02:50:56;;;;;;;;;;;24.50;90.10;;;;;;5093749;28;20089;-70
2023/07/25 02:53:23;;;;;;;;;;;24.60;90.10;;;;;;5092839;28;20115;-70
2023/07/25 02:55:50;;;;;;;;;;;24.60;87.00;;;;;;5093752;28;20106;-71
2023/07/25 02:58:17;;;;;;;;;;;24.70;81.10;;;;;;5075783;28;20093;-71
2023/07/25 03:00:44;;;;;;;;;;;24.70;86.30;;;;;;5093162;28;20129;-70
2023/07/25 03:03:11;;;;;;;;;;;24.80;81.70;;;;;;5093151;28;20122;-72
2023/07/25 03:05:38;;;;;;;;;;;24.70;82.60;;;;;;5093340;28;20245;-71
2023/07/25 03:08:05;;;;;;;;;;;24.60;84.80;;;;;;5093337;28;20111;-72
2023/07/25 03:10:32;;;;;;;;;;;24.20;88.80;;;;;;5092748;28;19978;-71
2023/07/25 03:12:59;;;;;;;;;;;24.30;87.40;;;;;;5093441;28;20135;-72
2023/07/25 03:15:26;;;;;;;;;;;24.60;86.70;;;;;;5092869;28;20100;-70
2023/07/25 03:17:54;;;;;;;;;;;24.50;85.90;;;;;;5093434;28;20098;-72
2023/07/25 03:20:21;;;;;;;;;;;24.80;84.20;;;;;;5092962;28;19988;-71
2023/07/25 03:22:48;;;;;;;;;;;25.20;82.20;;;;;;5092799;28;20442;-71
2023/07/25 03:25:14;;;;;;;;;;;25.20;82.20;;;;;;5092696;28;20007;-72
2023/07/25 03:27:41;;;;;;;;;;;25.00;78.20;;;;;;5092687;28;20092;-70
2023/07/25 03:30:08;;;;;;;;;;;25.00;79.40;;;;;;5092423;28;19968;-73
2023/07/25 03:32:35;;;;;;;;;;;25.00;77.70;;;;;;5080558;28;20096;-71
2023/07/25 03:35:03;;;;;;;;;;;24.90;80.90;;;;;;5073087;28;20031;-72
2023/07/25 03:37:30;;;;;;;;;;;24.90;80.40;;;;;;5071718;28;20550;-71
2023/07/25 03:39:57;;;;;;;;;;;25.10;73.00;;;;;;5072166;28;20106;-70
2023/07/25 03:42:23;;;;;;;;;;;24.70;69.80;;;;;;5072450;28;20101;-71
2023/07/25 03:44:51;;;;;;;;;;;24.60;69.40;;;;;;5084127;28;20167;-71
2023/07/25 03:47:18;;;;;;;;;;;24.40;70.00;;;;;;5092767;28;20172;-71
2023/07/25 03:49:45;;;;;;;;;;;24.50;74.40;;;;;;5092517;28;20000;-70
2023/07/25 03:52:12;;;;;;;;;;;24.80;72.20;;;;;;5092278;28;19975;-70
2023/07/25 03:54:39;;;;;;;;;;;24.80;75.50;;;;;;5092892;28;20158;-69
2023/07/25 03:57:06;;;;;;;;;;;24.80;70.20;;;;;;5093036;28;20086;-69
2023/07/25 03:59:33;;;;;;;;;;;23.90;78.70;;;;;;5091889;28;20108;-69
2023/07/25 04:01:59;;;;;;;;;;;23.30;76.20;;;;;;5092557;28;20085;-69
2023/07/25 04:04:26;;;;;;;;;;;23.30;80.90;;;;;;5092506;28;20196;-71
2023/07/25 04:06:53;;;;;;;;;;;23.00;85.30;;;;;;5092089;28;20171;-70
2023/07/25 04:09:20;;;;;;;;;;;23.30;83.20;;;;;;5092447;28;20153;-71
2023/07/25 04:11:47;;;;;;;;;;;23.60;83.30;;;;;;5091849;28;20106;-70
2023/07/25 04:14:14;;;;;;;;;;;23.90;78.60;;;;;;5087011;28;20092;-70
2023/07/25 04:16:40;;;;;;;;;;;23.90;74.70;;;;;;5091532;28;20112;-68
2023/07/25 04:19:07;;;;;;;;;;;24.10;75.90;;;;;;5091917;28;20102;-69
2023/07/25 04:21:34;;;;;;;;;;;24.10;72.60;;;;;;5091263;28;20590;-69
2023/07/25 04:24:01;;;;;;;;;;;24.40;68.10;;;;;;5091115;28;20597;-68
2023/07/25 04:26:31;;;;;;;;;;;24.10;70.60;;;;;;5091873;28;20614;-70
2023/07/25 04:28:58;;;;;;;;;;;23.90;69.40;;;;;;5090727;28;20091;-69
2023/07/25 04:31:25;;;;;;;;;;;23.40;67.10;;;;;;5091129;28;20482;-69
2023/07/25 04:33:52;;;;;;;;;;;22.70;73.60;;;;;;5091987;28;19977;-69
2023/07/25 04:36:19;;;;;;;;;;;22.70;75.00;;;;;;5092217;28;20494;-69
2023/07/25 04:38:46;;;;;;;;;;;23.10;79.90;;;;;;5091161;28;20151;-69
2023/07/25 04:41:12;;;;;;;;;;;23.60;79.30;;;;;;5091649;28;20076;-69
2023/07/25 04:43:39;;;;;;;;;;;23.70;71.80;;;;;;5090691;28;20188;-69
2023/07/25 04:46:06;;;;;;;;;;;23.20;76.10;;;;;;5092021;28;20099;-69
2023/07/25 04:48:33;;;;;;;;;;;23.70;73.20;;;;;;5091514;28;20555;-68
2023/07/25 04:50:59;;;;;;;;;;;23.80;72.70;;;;;;5086112;28;20415;-69
2023/07/25 04:53:26;;;;;;;;;;;23.50;78.50;;;;;;5092014;28;20082;-68
2023/07/25 04:55:53;;;;;;;;;;;23.30;91.60;;;;;;5092237;28;20125;-68
2023/07/25 04:58:19;;;;;;;;;;;23.40;96.80;;;;;;5091923;28;20579;-68
2023/07/25 05:00:47;;;;;;;;;;;23.40;99.00;;;;;;5092454;28;19967;-69
2023/07/25 05:03:13;;;;;;;;;;;23.10;99.90;;;;;;5090947;28;20083;-68
2023/07/25 05:05:40;;;;;;;;;;;22.70;99.90;;;;;;5092808;28;19976;-69
2023/07/25 05:08:07;;;;;;;;;;;22.30;99.90;;;;;;5092235;28;20011;-69
2023/07/25 05:10:35;;;;;;;;;;;22.20;99.90;;;;;;5092537;28;20077;-69
2023/07/25 05:13:01;;;;;;;;;;;22.00;99.90;;;;;;5092858;28;20079;-68
2023/07/25 05:15:28;;;;;;;;;;;21.90;99.90;;;;;;5092661;28;20082;-69
2023/07/25 05:17:55;;;;;;;;;;;21.80;99.90;;;;;;5092090;28;20084;-69
2023/07/25 05:20:21;;;;;;;;;;;21.30;99.90;;;;;;5092819;28;20089;-68
2023/07/25 05:22:48;;;;;;;;;;;20.90;99.90;;;;;;5093267;28;20078;-69
2023/07/25 05:25:15;;;;;;;;;;;20.30;99.90;;;;;;5092442;28;20145;-68
2023/07/25 05:27:41;;;;;;;;;;;19.90;99.90;;;;;;5093165;28;20078;-69
2023/07/25 05:30:08;;;;;;;;;;;19.60;99.90;;;;;;5092629;28;20082;-68
2023/07/25 05:32:35;;;;;;;;;;;19.40;99.90;;;;;;5091563;28;19959;-69
2023/07/25 05:35:02;;;;;;;;;;;19.20;99.90;;;;;;5091998;28;19959;-69
2023/07/25 05:37:36;;;;;;;;;;;19.10;99.90;;;;;;5085678;28;20929;-69
2023/07/25 05:40:03;;;;;;;;;;;19.00;99.90;;;;;;5090296;28;19982;-70
2023/07/25 05:42:30;;;;;;;;;;;19.00;99.90;;;;;;5072646;28;20087;-70
2023/07/25 05:44:58;;;;;;;;;;;19.00;99.90;;;;;;5090413;28;19916;-70
2023/07/25 05:47:25;;;;;;;;;;;19.00;99.90;;;;;;5090567;28;19908;-71
2023/07/25 05:49:52;;;;;;;;;;;19.00;99.90;;;;;;5090933;28;19912;-70
2023/07/25 05:52:18;;;;;;;;;;;18.90;99.90;;;;;;5090033;28;19914;-69
2023/07/25 05:54:45;;;;;;;;;;;18.80;99.90;;;;;;5091014;28;20037;-70
2023/07/25 05:57:12;;;;;;;;;;;18.80;99.90;;;;;;5091304;28;20016;-68
2023/07/25 05:59:40;;;;;;;;;;;18.60;99.90;;;;;;5090750;28;20080;-70
2023/07/25 06:02:08;;;;;;;;;;;18.60;99.90;;;;;;5091150;28;20649;-69
2023/07/25 06:04:34;;;;;;;;;;;18.50;99.90;;;;;;5090691;28;20490;-68
2023/07/25 06:07:01;;;;;;;;;;;18.30;99.90;;;;;;5090683;28;24111;-69
2023/07/25 06:09:28;;;;;;;;;;;18.10;99.90;;;;;;5090474;28;20033;-70
2023/07/25 06:11:55;;;;;;;;;;;18.00;99.90;;;;;;5091424;28;19952;-69
2023/07/25 06:14:22;;;;;;;;;;;17.90;99.90;;;;;;5090828;28;19904;-69
2023/07/25 06:16:48;;;;;;;;;;;17.80;99.90;;;;;;5090958;28;20116;-70
2023/07/25 06:19:15;;;;;;;;;;;17.80;99.90;;;;;;5091005;28;20040;-70
2023/07/25 06:21:42;;;;;;;;;;;17.70;99.90;;;;;;5089865;28;19912;-70
2023/07/25 06:24:08;;;;;;;;;;;17.50;99.90;;;;;;5090523;28;20501;-69
2023/07/25 06:26:35;;;;;;;;;;;17.50;99.90;;;;;;5090085;28;19951;-70
2023/07/25 06:29:02;;;;;;;;;;;17.40;99.90;;;;;;5090478;28;20032;-69
2023/07/25 06:31:28;;;;;;;;;;;17.30;99.90;;;;;;5087747;28;19904;-69
2023/07/25 06:33:55;;;;;;;;;;;17.20;99.90;;;;;;5084845;28;19908;-69
2023/07/25 06:36:22;;;;;;;;;;;17.20;99.90;;;;;;5089982;28;24158;-70
2023/07/25 06:38:48;;;;;;;;;;;17.10;99.90;;;;;;5089953;28;20061;-70
2023/07/25 06:41:15;;;;;;;;;;;17.00;99.90;;;;;;5090709;28;20043;-70
2023/07/25 06:43:42;;;;;;;;;;;17.00;99.90;;;;;;5090468;28;24079;-69
2023/07/25 06:46:08;;;;;;;;;;;16.90;99.90;;;;;;5093753;28;20040;-69
2023/07/25 06:48:35;;;;;;;;;;;16.80;99.90;;;;;;5093897;28;19908;-69
2023/07/25 06:51:02;;;;;;;;;;;16.70;99.90;;;;;;5094147;28;20024;-69
2023/07/25 06:53:29;;;;;;;;;;;16.70;99.90;;;;;;5093368;28;20051;-70
2023/07/25 06:55:56;;;;;;;;;;;16.60;99.90;;;;;;5094421;28;19904;-69
2023/07/25 06:58:22;;;;;;;;;;;16.50;99.90;;;;;;5093808;28;19915;-69
2023/07/25 07:00:49;;;;;;;;;;;16.40;99.90;;;;;;5091623;28;20019;-69
2023/07/25 07:03:16;;;;;;;;;;;16.30;99.90;;;;;;5088242;28;19912;-68
2023/07/25 07:05:51;;;;;;;;;;;16.20;99.90;;;;;;5093321;28;19914;-68
2023/07/25 07:08:18;;;;;;;;;;;16.20;99.90;;;;;;5094039;28;19953;-69
2023/07/25 07:10:45;;;;;;;;;;;16.10;99.90;;;;;;5094502;28;20100;-69
2023/07/25 07:13:11;;;;;;;;;;;16.00;99.90;;;;;;5087428;28;24109;-69
2023/07/25 07:15:41;;;;;;;;;;;15.90;99.90;;;;;;5089795;28;24062;-69
2023/07/25 07:18:07;;;;;;;;;;;15.80;99.90;;;;;;5094531;28;24053;-68
2023/07/25 07:20:34;;;;;;;;;;;15.70;99.90;;;;;;5094638;28;24089;-69
2023/07/25 07:23:04;;;;;;;;;;;15.60;99.90;;;;;;5092831;28;19914;-69
2023/07/25 07:25:31;;;;;;;;;;;15.60;99.90;;;;;;5071260;28;24065;-68
2023/07/25 07:27:58;;;;;;;;;;;15.60;99.90;;;;;;5092776;28;20023;-69
2023/07/25 07:30:25;;;;;;;;;;;15.50;99.90;;;;;;5092601;28;19910;-69
2023/07/25 07:32:51;;;;;;;;;;;15.40;99.90;;;;;;5092098;28;24102;-69
2023/07/25 07:35:18;;;;;;;;;;;15.30;99.90;;;;;;5092622;28;19908;-69
2023/07/25 07:37:45;;;;;;;;;;;15.10;99.90;;;;;;5082300;28;20395;-69
2023/07/25 07:40:11;;;;;;;;;;;15.00;99.90;;;;;;5072288;28;19991;-68
2023/07/25 07:42:38;;;;;;;;;;;14.90;99.90;;;;;;5071924;28;24068;-69
2023/07/25 07:45:05;;;;;;;;;;;14.70;99.90;;;;;;5072290;28;24071;-70
2023/07/25 07:47:32;;;;;;;;;;;14.60;99.90;;;;;;5090513;28;24060;-69
2023/07/25 07:49:59;;;;;;;;;;;14.50;99.90;;;;;;5092169;28;20028;-70
2023/07/25 07:52:26;;;;;;;;;;;14.40;99.90;;;;;;5092508;28;19904;-69
2023/07/25 07:54:53;;;;;;;;;;;14.30;99.90;;;;;;5091923;28;24107;-69
2023/07/25 07:57:19;;;;;;;;;;;14.20;99.90;;;;;;5091490;28;20312;-69
2023/07/25 07:59:46;;;;;;;;;;;14.20;99.90;;;;;;5090362;28;24076;-70
2023/07/25 08:02:13;;;;;;;;;;;14.10;99.90;;;;;;5091204;28;19912;-69
2023/07/25 08:04:39;;;;;;;;;;;14.00;99.90;;;;;;5091973;28;25052;-69
2023/07/25 08:07:06;;;;;;;;;;;13.90;99.90;;;;;;5092250;28;24091;-69
2023/07/25 08:09:33;;;;;;;;;;;13.90;99.90;;;;;;5091134;28;24070;-70
2023/07/25 08:12:03;;;;;;;;;;;13.90;99.90;;;;;;5092010;28;19904;-69
2023/07/25 08:14:29;;;;;;;;;;;13.80;99.90;;;;;;5091470;28;19908;-69
2023/07/25 08:16:56;;;;;;;;;;;13.80;99.90;;;;;;5091068;28;19998;-69
2023/07/25 08:19:23;;;;;;;;;;;13.70;99.90;;;;;;5092008;28;19908;-69
2023/07/25 08:21:52;;;;;;;;;;;13.60;99.90;;;;;;5086630;28;19943;-69
2023/07/25 08:24:19;;;;;;;;;;;13.50;99.90;;;;;;5060679;28;19919;-71
2023/07/25 08:26:45;;;;;;;;;;;13.40;99.90;;;;;;5076908;28;20349;-70
2023/07/25 08:29:12;;;;;;;;;;;13.40;99.90;;;;;;5084277;28;24187;-70
2023/07/25 08:31:38;;;;;;;;;;;13.30;99.90;;;;;;5076195;28;19919;-69
2023/07/25 08:34:05;;;;;;;;;;;13.10;99.90;;;;;;5084319;28;20481;-69
2023/07/25 08:36:32;;;;;;;;;;;13.10;99.90;;;;;;5090903;28;19907;-70
2023/07/25 08:38:58;;;;;;;;;;;13.00;99.90;;;;;;5091051;28;19961;-68
2023/07/25 08:41:26;;;;;;;;;;;13.00;99.90;;;;;;5087832;28;19913;-69
2023/07/25 08:43:54;;;;;;;;;;;13.00;99.90;;;;;;5077459;28;24078;-70
2023/07/25 08:46:20;;;;;;;;;;;12.90;99.90;;;;;;5090574;28;24923;-69
2023/07/25 08:48:47;;;;;;;;;;;12.80;99.90;;;;;;5091280;28;20507;-70
2023/07/25 08:51:18;;;;;;;;;;;12.80;99.90;;;;;;5091609;28;24074;-69
2023/07/25 08:54:06;;;;;;;;;;;12.70;99.90;;;;;;5090483;28;25079;-70
2023/07/25 08:56:34;;;;;;;;;;;12.60;99.90;;;;;;5091157;28;19912;-69
2023/07/25 08:59:01;;;;;;;;;;;12.60;99.90;;;;;;5091356;28;19923;-69
2023/07/25 09:01:28;;;;;;;;;;;12.60;99.90;;;;;;5090866;28;24058;-69
2023/07/25 09:03:55;;;;;;;;;;;12.60;99.90;;;;;;5090917;28;19919;-69
2023/07/25 09:06:22;;;;;;;;;;;12.60;99.90;;;;;;5090442;28;24135;-69
2023/07/25 09:08:49;;;;;;;;;;;12.50;99.90;;;;;;5089970;28;19908;-70
2023/07/25 09:11:19;;;;;;;;;;;12.40;99.90;;;;;;5090576;28;19912;-69
2023/07/25 09:13:46;;;;;;;;;;;12.40;99.90;;;;;;5091073;28;19912;-69
2023/07/25 09:16:12;;;;;;;;;;;12.30;99.90;;;;;;5090790;28;20041;-70
2023/07/25 09:18:39;;;;;;;;;;;12.30;99.90;;;;;;5090915;28;20289;-70
2023/07/25 09:21:06;;;;;;;;;;;12.40;99.90;;;;;;5091013;28;19904;-69
2023/07/25 09:23:33;;;;;;;;;;;12.40;99.90;;;;;;5089640;28;19920;-69
2023/07/25 09:26:08;;;;;;;;;;;12.30;99.90;;;;;;5084737;28;19908;-69
2023/07/25 09:28:35;;;;;;;;;;;12.20;99.90;;;;;;5090944;28;19904;-70
2023/07/25 09:31:05;;;;;;;;;;;12.10;99.90;;;;;;5090261;28;24075;-69
2023/07/25 09:33:32;;;;;;;;;;;12.10;99.90;;;;;;5090099;28;19994;-69
2023/07/25 09:35:59;;;;;;;;;;;12.00;99.90;;;;;;5090499;28;20269;-69
2023/07/25 09:38:26;;;;;;;;;;;11.90;99.90;;;;;;5090103;28;20117;-69
2023/07/25 09:40:52;;;;;;;;;;;11.90;99.90;;;;;;5090877;28;19961;-69
2023/07/25 09:43:23;;;;;;;;;;;11.90;99.90;;;;;;5090203;28;20047;-69
2023/07/25 09:45:50;;;;;;;;;;;11.80;99.90;;;;;;5085884;28;19917;-69
2023/07/25 09:48:17;;;;;;;;;;;11.80;99.90;;;;;;5072539;28;24107;-69
2023/07/25 09:50:44;;;;;;;;;;;11.80;99.90;;;;;;5090434;28;24070;-70
2023/07/25 09:53:15;;;;;;;;;;;11.70;99.90;;;;;;5090229;28;19931;-70
2023/07/25 09:55:42;;;;;;;;;;;11.60;99.90;;;;;;5091281;28;19925;-69
2023/07/25 09:58:09;;;;;;;;;;;11.60;99.90;;;;;;5091717;28;19912;-70
2023/07/25 10:00:36;;;;;;;;;;;11.60;99.90;;;;;;5092348;28;20368;-69
2023/07/25 10:03:03;;;;;;;;;;;11.50;99.90;;;;;;5092145;28;24082;-70
2023/07/25 10:05:29;;;;;;;;;;;11.50;99.90;;;;;;5073906;28;24068;-70
2023/07/25 10:07:57;;;;;;;;;;;11.40;99.90;;;;;;5092246;28;19931;-70
2023/07/25 10:10:25;;;;;;;;;;;11.40;99.90;;;;;;5074131;28;25070;-69
2023/07/25 10:12:52;;;;;;;;;;;11.40;99.90;;;;;;5092045;28;19904;-69
2023/07/25 10:15:19;;;;;;;;;;;11.40;99.90;;;;;;5091864;28;19908;-70
2023/07/25 10:17:46;;;;;;;;;;;11.30;99.90;;;;;;5091995;28;19961;-69
2023/07/25 10:20:20;;;;;;;;;;;11.20;99.90;;;;;;5095102;28;19943;-69
2023/07/25 10:22:47;;;;;;;;;;;11.20;99.90;;;;;;5095860;28;25103;-69
2023/07/25 10:25:21;;;;;;;;;;;11.20;99.90;;;;;;5095732;28;25054;-69
2023/07/25 10:27:47;;;;;;;;;;;11.10;99.90;;;;;;5095871;28;24104;-69
2023/07/25 10:30:24;;;;;;;;;;;11.10;99.90;;;;;;5095722;28;24077;-69
2023/07/25 10:32:53;;;;;;;;;;;11.00;99.90;;;;;;5095559;28;20081;-69
2023/07/25 10:35:38;;;;;;;;;;;11.00;99.90;;;;;;5095693;28;20326;-70
2023/07/25 10:38:09;;;;;;;;;;;11.00;99.90;;;;;;5095415;28;19908;-69
2023/07/25 10:40:54;;;;;;;;;;;10.90;99.90;;;;;;5095517;28;19919;-69
2023/07/25 10:43:21;;;;;;;;;;;10.90;99.90;;;;;;5094882;28;25051;-69
2023/07/25 10:45:49;;;;;;;;;;;10.90;99.90;;;;;;5095686;28;20280;-69
2023/07/25 10:48:35;;;;;;;;;;;10.80;99.90;;;;;;5095459;28;19908;-69
2023/07/25 10:51:06;;;;;;;;;;;10.80;99.90;;;;;;5095518;28;24055;-69
2023/07/25 10:53:33;;;;;;;;;;;10.70;99.90;;;;;;5076517;28;25136;-69
2023/07/25 10:56:06;;;;;;;;;;;10.70;99.90;;;;;;5095530;28;19904;-69
2023/07/25 10:58:40;;;;;;;;;;;10.70;99.90;;;;;;5095367;28;19904;-69
2023/07/25 11:01:07;;;;;;;;;;;10.60;99.90;;;;;;5094906;28;19904;-69
2023/07/25 11:03:37;;;;;;;;;;;10.50;99.90;;;;;;5095401;28;19903;-69
2023/07/25 11:06:07;;;;;;;;;;;10.50;99.90;;;;;;5094877;28;19912;-70
2023/07/25 11:08:37;;;;;;;;;;;10.50;99.90;;;;;;5090104;28;19912;-70
2023/07/25 11:11:07;;;;;;;;;;;10.50;99.90;;;;;;5094790;28;19959;-69
2023/07/25 11:13:36;;;;;;;;;;;10.50;99.90;;;;;;5065817;28;19908;-70
2023/07/25 11:16:03;;;;;;;;;;;10.40;99.90;;;;;;5073280;28;19912;-69
2023/07/25 11:18:33;;;;;;;;;;;10.30;99.90;;;;;;5074815;28;24075;-69
2023/07/25 11:21:00;;;;;;;;;;;10.30;99.90;;;;;;5092963;28;19957;-69
2023/07/25 11:23:27;;;;;;;;;;;10.20;99.90;;;;;;5092141;28;19916;-69
2023/07/25 11:26:01;;;;;;;;;;;10.20;99.90;;;;;;5092959;28;19977;-68
2023/07/25 11:28:27;;;;;;;;;;;10.20;99.90;;;;;;5092651;28;20349;-69
2023/07/25 11:30:54;;;;;;;;;;;10.20;99.90;;;;;;5092356;28;25106;-69
2023/07/25 11:33:21;;;;;;;;;;;10.10;99.90;;;;;;5093092;28;25143;-68
2023/07/25 11:35:55;;;;;;;;;;;10.20;99.90;;;;;;5092686;28;19979;-69
2023/07/25 11:38:22;;;;;;;;;;;10.10;99.90;;;;;;5092848;28;19915;-69
2023/07/25 11:40:53;;;;;;;;;;;10.00;99.90;;;;;;5072851;28;19912;-69
2023/07/25 11:43:20;;;;;;;;;;;9.90;99.90;;;;;;5083308;28;19923;-69
2023/07/25 11:45:47;;;;;;;;;;;9.90;99.90;;;;;;5093130;28;20028;-69
2023/07/25 11:48:15;;;;;;;;;;;9.90;99.90;;;;;;5093014;28;19911;-69
2023/07/25 11:50:43;;;;;;;;;;;9.90;99.90;;;;;;5092317;28;20301;-69
2023/07/25 11:53:10;;;;;;;;;;;9.90;99.90;;;;;;5093107;28;24079;-68
2023/07/25 11:55:37;;;;;;;;;;;9.80;99.90;;;;;;5092929;28;24153;-69
2023/07/25 11:58:04;;;;;;;;;;;9.80;99.90;;;;;;5092220;28;20483;-69
2023/07/25 12:00:40;;;;;;;;;;;9.70;99.90;;;;;;5092666;28;20261;-69
2023/07/25 12:03:21;;;;;;;;;;;9.70;99.90;;;;;;5092454;28;24173;-69
2023/07/25 12:06:05;;;;;;;;;;;9.70;99.90;;;;;;5073738;28;24067;-71
2023/07/25 12:08:42;;;;;;;;;;;9.70;99.90;;;;;;5092794;28;19904;-69
2023/07/25 12:11:10;;;;;;;;;;;9.70;99.90;;;;;;5092862;28;20002;-69
2023/07/25 12:13:43;;;;;;;;;;;9.70;99.90;;;;;;5091460;28;19915;-70
2023/07/25 12:16:23;;;;;;;;;;;9.70;99.90;;;;;;5092368;28;19959;-70
2023/07/25 12:18:51;;;;;;;;;;;9.50;99.90;;;;;;5092463;28;24071;-69
2023/07/25 12:21:26;;;;;;;;;;;9.50;99.90;;;;;;5091645;28;19995;-70
2023/07/25 12:23:53;;;;;;;;;;;9.50;99.90;;;;;;5092313;28;19907;-70
2023/07/25 12:26:21;;;;;;;;;;;9.50;99.90;;;;;;5092114;28;19903;-70
2023/07/25 12:28:48;;;;;;;;;;;9.50;99.90;;;;;;5091548;28;20395;-70
2023/07/25 12:31:15;;;;;;;;;;;9.50;99.90;;;;;;5091556;28;19911;-70
2023/07/25 12:33:47;;;;;;;;;;;9.50;99.90;;;;;;5090698;28;20402;-70
2023/07/25 12:36:15;;;;;;;;;;;9.40;99.90;;;;;;5091677;28;24059;-70
2023/07/25 12:38:42;;;;;;;;;;;9.40;99.90;;;;;;5091106;28;24072;-69
2023/07/25 12:41:08;;;;;;;;;;;9.40;99.90;;;;;;5091209;28;25126;-68
2023/07/25 12:43:35;;;;;;;;;;;9.30;99.90;;;;;;5090871;28;19927;-69
2023/07/25 12:46:02;;;;;;;;;;;9.30;99.90;;;;;;5091479;28;20261;-69
2023/07/25 12:48:29;;;;;;;;;;;9.20;99.90;;;;;;5091857;28;24066;-69
2023/07/25 12:50:57;;;;;;;;;;;9.30;99.90;;;;;;5090844;28;19919;-69
2023/07/25 12:53:24;;;;;;;;;;;9.30;99.90;;;;;;5091324;28;24108;-69
2023/07/25 12:55:51;;;;;;;;;;;9.20;99.90;;;;;;5091217;28;25038;-69
2023/07/25 12:58:17;;;;;;;;;;;9.20;99.90;;;;;;5091297;28;20315;-69
2023/07/25 13:00:44;;;;;;;;;;;9.20;99.90;;;;;;5091616;28;19912;-69
2023/07/25 13:03:12;;;;;;;;;;;9.20;99.90;;;;;;5091480;28;19912;-69
2023/07/25 13:05:39;;;;;;;;;;;9.10;99.90;;;;;;5090556;28;20014;-69
2023/07/25 13:08:06;;;;;;;;;;;9.00;99.90;;;;;;5093292;28;19904;-69
2023/07/25 13:10:32;;;;;;;;;;;9.00;99.90;;;;;;5074858;28;24413;-69
2023/07/25 13:12:59;;;;;;;;;;;8.90;99.90;;;;;;5093010;28;24082;-69
2023/07/25 13:15:26;;;;;;;;;;;8.90;99.90;;;;;;5092530;28;19958;-69
2023/07/25 13:17:53;;;;;;;;;;;8.90;99.90;;;;;;5093295;28;19915;-70
2023/07/25 13:20:21;;;;;;;;;;;9.00;99.90;;;;;;5093250;28;19933;-71
2023/07/25 13:22:47;;;;;;;;;;;8.90;99.90;;;;;;5092106;28;20007;-71
2023/07/25 13:25:14;;;;;;;;;;;8.80;99.90;;;;;;5092514;28;19919;-70
2023/07/25 13:27:41;;;;;;;;;;;8.90;99.90;;;;;;5092202;28;20424;-71
2023/07/25 13:30:08;;;;;;;;;;;8.80;99.90;;;;;;5092693;28;20070;-70
2023/07/25 13:32:34;;;;;;;;;;;8.70;99.90;;;;;;5092798;28;19908;-71
2023/07/25 13:35:01;;;;;;;;;;;8.70;99.90;;;;;;5092646;28;19994;-70
2023/07/25 13:37:28;;;;;;;;;;;8.60;99.90;;;;;;5092966;28;19908;-71
2023/07/25 13:39:54;;;;;;;;;;;8.60;99.90;;;;;;5092487;28;19995;-70
2023/07/25 13:42:22;;;;;;;;;;;8.60;99.90;;;;;;5092400;28;19911;-71
2023/07/25 13:44:49;;;;;;;;;;;8.60;99.90;;;;;;5091838;28;20050;-70
2023/07/25 13:47:16;;;;;;;;;;;8.60;99.90;;;;;;5092813;28;19944;-70
2023/07/25 13:49:42;;;;;;;;;;;8.60;99.90;;;;;;5092942;28;24056;-70
2023/07/25 13:52:09;;;;;;;;;;;8.60;99.90;;;;;;5092178;28;19915;-70
2023/07/25 13:54:36;;;;;;;;;;;8.60;99.90;;;;;;5094251;28;19908;-70
2023/07/25 13:57:03;;;;;;;;;;;8.50;99.90;;;;;;5096320;28;19961;-70
2023/07/25 13:59:30;;;;;;;;;;;8.40;99.90;;;;;;5096768;28;19976;-70
2023/07/25 14:01:58;;;;;;;;;;;8.40;99.90;;;;;;5096937;28;19914;-70
2023/07/25 14:04:25;;;;;;;;;;;8.30;99.90;;;;;;5096540;28;19922;-70
2023/07/25 14:06:51;;;;;;;;;;;8.30;99.90;;;;;;5096843;28;24077;-70
2023/07/25 14:09:19;;;;;;;;;;;8.30;99.90;;;;;;5078944;28;24064;-70
2023/07/25 14:11:46;;;;;;;;;;;8.40;99.90;;;;;;5097315;28;19903;-70
2023/07/25 14:14:13;;;;;;;;;;;8.40;99.90;;;;;;5097275;28;24084;-68
2023/07/25 14:16:39;;;;;;;;;;;8.40;99.90;;;;;;5096872;28;19915;-69
2023/07/25 14:19:06;;;;;;;;;;;8.40;99.90;;;;;;5097096;28;19980;-69
2023/07/25 14:21:33;;;;;;;;;;;8.30;99.90;;;;;;5097169;28;19904;-69